Williams Lake, Canada
Current Conditions -  °F | °C
As of 1:00 PM on Tuesday 25 Nov 2014 (Local Time) from CYWL Reporting Station
Broken Clouds Broken Clouds  
Wind Chill: 28°   Ceiling: 22000
Heat Index: 28°   Visibility: 15mi
Dew Point: 28°   Wind: 3mph
Humidity: 100%   Direction: 100°E
Pressure: 30.16"   Gusts: NA
Location:  52.13°N, 122.14°W
Report Text: CYWL 252100Z 10003KT 15SM FEW080 BKN220 M02/M02 A3016 RMK AC1CI6 SLP258
Loading
Personal Weather Stations






























Interactive Weather Map New forecast layout! Learn more

10-Day Weather Forecast

Advertisements
Track Severe Weather on mobile